sensor_id;sensor_type;location;lat;lon;timestamp;P1;durP1;ratioP1;P2;durP2;ratioP2
45887;SDS011;31595;51.418;7.572;2023-03-04T00:00:13;30.52;;;17.48;;
45887;SDS011;31595;51.418;7.572;2023-03-04T00:02:41;32.45;;;18.10;;
45887;SDS011;31595;51.418;7.572;2023-03-04T00:05:10;32.40;;;17.60;;
45887;SDS011;31595;51.418;7.572;2023-03-04T00:07:40;32.50;;;17.30;;
45887;SDS011;31595;51.418;7.572;2023-03-04T00:10:08;29.85;;;17.63;;
45887;SDS011;31595;51.418;7.572;2023-03-04T00:12:39;33.58;;;17.13;;
45887;SDS011;31595;51.418;7.572;2023-03-04T00:15:08;28.83;;;16.70;;
45887;SDS011;31595;51.418;7.572;2023-03-04T00:17:35;32.15;;;17.73;;
45887;SDS011;31595;51.418;7.572;2023-03-04T00:20:06;30.17;;;15.63;;
45887;SDS011;31595;51.418;7.572;2023-03-04T00:22:36;28.58;;;16.45;;
45887;SDS011;31595;51.418;7.572;2023-03-04T00:25:04;30.67;;;16.15;;
45887;SDS011;31595;51.418;7.572;2023-03-04T00:27:35;29.40;;;18.08;;
45887;SDS011;31595;51.418;7.572;2023-03-04T00:30:03;28.52;;;15.90;;
45887;SDS011;31595;51.418;7.572;2023-03-04T00:32:31;32.65;;;17.77;;
45887;SDS011;31595;51.418;7.572;2023-03-04T00:35:02;32.85;;;18.05;;
45887;SDS011;31595;51.418;7.572;2023-03-04T00:37:31;34.15;;;17.40;;
45887;SDS011;31595;51.418;7.572;2023-03-04T00:39:59;29.58;;;16.67;;
45887;SDS011;31595;51.418;7.572;2023-03-04T00:42:27;34.45;;;18.13;;
45887;SDS011;31595;51.418;7.572;2023-03-04T00:44:54;31.45;;;17.30;;
45887;SDS011;31595;51.418;7.572;2023-03-04T00:47:22;28.77;;;16.30;;
45887;SDS011;31595;51.418;7.572;2023-03-04T00:49:49;29.15;;;16.67;;
45887;SDS011;31595;51.418;7.572;2023-03-04T00:52:20;27.48;;;16.80;;
45887;SDS011;31595;51.418;7.572;2023-03-04T00:54:47;30.35;;;16.23;;
45887;SDS011;31595;51.418;7.572;2023-03-04T00:57:18;30.40;;;17.00;;
45887;SDS011;31595;51.418;7.572;2023-03-04T00:59:48;29.13;;;16.42;;
45887;SDS011;31595;51.418;7.572;2023-03-04T01:02:16;29.38;;;16.65;;
45887;SDS011;31595;51.418;7.572;2023-03-04T01:04:45;28.40;;;16.30;;
45887;SDS011;31595;51.418;7.572;2023-03-04T01:07:13;27.83;;;16.00;;
45887;SDS011;31595;51.418;7.572;2023-03-04T01:09:41;26.30;;;15.98;;
45887;SDS011;31595;51.418;7.572;2023-03-04T01:12:08;24.85;;;15.52;;
45887;SDS011;31595;51.418;7.572;2023-03-04T01:14:37;22.65;;;14.55;;
45887;SDS011;31595;51.418;7.572;2023-03-04T01:17:05;26.00;;;14.83;;
45887;SDS011;31595;51.418;7.572;2023-03-04T01:19:34;27.05;;;15.95;;
45887;SDS011;31595;51.418;7.572;2023-03-04T01:22:01;21.30;;;14.10;;
45887;SDS011;31595;51.418;7.572;2023-03-04T01:24:29;27.55;;;15.40;;
45887;SDS011;31595;51.418;7.572;2023-03-04T01:26:57;25.83;;;16.33;;
45887;SDS011;31595;51.418;7.572;2023-03-04T01:29:28;23.85;;;14.15;;
45887;SDS011;31595;51.418;7.572;2023-03-04T01:31:57;26.65;;;14.95;;
45887;SDS011;31595;51.418;7.572;2023-03-04T01:34:25;25.20;;;15.55;;
45887;SDS011;31595;51.418;7.572;2023-03-04T01:36:52;24.90;;;15.05;;
45887;SDS011;31595;51.418;7.572;2023-03-04T01:39:20;24.42;;;15.18;;
45887;SDS011;31595;51.418;7.572;2023-03-04T01:41:47;22.98;;;15.00;;
45887;SDS011;31595;51.418;7.572;2023-03-04T01:44:15;20.17;;;13.25;;
45887;SDS011;31595;51.418;7.572;2023-03-04T01:46:43;24.63;;;13.98;;
45887;SDS011;31595;51.418;7.572;2023-03-04T01:49:17;24.52;;;13.07;;
45887;SDS011;31595;51.418;7.572;2023-03-04T01:51:52;21.20;;;13.57;;
45887;SDS011;31595;51.418;7.572;2023-03-04T01:54:22;20.95;;;12.75;;
45887;SDS011;31595;51.418;7.572;2023-03-04T01:56:50;21.15;;;12.82;;
45887;SDS011;31595;51.418;7.572;2023-03-04T01:59:19;23.88;;;13.68;;
45887;SDS011;31595;51.418;7.572;2023-03-04T02:01:49;21.95;;;12.32;;
45887;SDS011;31595;51.418;7.572;2023-03-04T02:04:19;20.58;;;13.25;;
45887;SDS011;31595;51.418;7.572;2023-03-04T02:06:49;24.67;;;13.43;;
45887;SDS011;31595;51.418;7.572;2023-03-04T02:09:18;23.52;;;13.48;;
45887;SDS011;31595;51.418;7.572;2023-03-04T02:11:46;19.92;;;12.13;;
45887;SDS011;31595;51.418;7.572;2023-03-04T02:14:18;21.17;;;12.40;;
45887;SDS011;31595;51.418;7.572;2023-03-04T02:16:49;24.45;;;13.27;;
45887;SDS011;31595;51.418;7.572;2023-03-04T02:19:39;24.27;;;11.73;;
45887;SDS011;31595;51.418;7.572;2023-03-04T02:22:21;19.63;;;10.67;;
45887;SDS011;31595;51.418;7.572;2023-03-04T02:24:50;22.70;;;12.27;;
45887;SDS011;31595;51.418;7.572;2023-03-04T02:27:25;21.17;;;11.02;;
45887;SDS011;31595;51.418;7.572;2023-03-04T02:29:56;22.50;;;11.82;;
45887;SDS011;31595;51.418;7.572;2023-03-04T02:32:23;27.13;;;12.40;;
45887;SDS011;31595;51.418;7.572;2023-03-04T02:34:51;21.50;;;11.20;;
45887;SDS011;31595;51.418;7.572;2023-03-04T02:37:18;20.48;;;12.13;;
45887;SDS011;31595;51.418;7.572;2023-03-04T02:39:46;20.75;;;11.10;;
45887;SDS011;31595;51.418;7.572;2023-03-04T02:42:15;20.67;;;11.82;;
45887;SDS011;31595;51.418;7.572;2023-03-04T02:44:46;23.15;;;12.27;;
45887;SDS011;31595;51.418;7.572;2023-03-04T02:47:15;20.67;;;10.93;;
45887;SDS011;31595;51.418;7.572;2023-03-04T02:49:46;21.00;;;11.20;;
45887;SDS011;31595;51.418;7.572;2023-03-04T02:52:16;18.45;;;11.18;;
45887;SDS011;31595;51.418;7.572;2023-03-04T02:54:45;22.95;;;11.32;;
45887;SDS011;31595;51.418;7.572;2023-03-04T02:57:13;22.15;;;10.77;;
45887;SDS011;31595;51.418;7.572;2023-03-04T02:59:49;16.50;;;10.65;;
45887;SDS011;31595;51.418;7.572;2023-03-04T03:02:19;18.25;;;10.60;;
45887;SDS011;31595;51.418;7.572;2023-03-04T03:04:47;21.65;;;8.75;;
45887;SDS011;31595;51.418;7.572;2023-03-04T03:07:15;18.80;;;9.32;;
45887;SDS011;31595;51.418;7.572;2023-03-04T03:09:42;21.48;;;7.88;;
45887;SDS011;31595;51.418;7.572;2023-03-04T03:12:10;16.75;;;7.32;;
45887;SDS011;31595;51.418;7.572;2023-03-04T03:14:37;17.35;;;6.28;;
45887;SDS011;31595;51.418;7.572;2023-03-04T03:17:06;15.65;;;6.25;;
45887;SDS011;31595;51.418;7.572;2023-03-04T03:22:02;10.82;;;3.60;;
45887;SDS011;31595;51.418;7.572;2023-03-04T03:24:29;12.52;;;3.65;;
45887;SDS011;31595;51.418;7.572;2023-03-04T03:26:57;14.80;;;4.13;;
45887;SDS011;31595;51.418;7.572;2023-03-04T03:29:24;14.52;;;3.67;;
45887;SDS011;31595;51.418;7.572;2023-03-04T03:31:53;14.07;;;3.70;;
45887;SDS011;31595;51.418;7.572;2023-03-04T03:34:22;15.48;;;3.78;;
45887;SDS011;31595;51.418;7.572;2023-03-04T03:36:50;15.63;;;4.70;;
45887;SDS011;31595;51.418;7.572;2023-03-04T03:39:18;14.88;;;3.60;;
45887;SDS011;31595;51.418;7.572;2023-03-04T03:41:46;15.68;;;4.45;;
45887;SDS011;31595;51.418;7.572;2023-03-04T03:44:13;19.30;;;4.68;;
45887;SDS011;31595;51.418;7.572;2023-03-04T03:46:40;15.07;;;4.35;;
45887;SDS011;31595;51.418;7.572;2023-03-04T03:49:08;17.23;;;5.05;;
45887;SDS011;31595;51.418;7.572;2023-03-04T03:51:37;11.88;;;3.85;;
45887;SDS011;31595;51.418;7.572;2023-03-04T03:54:04;14.20;;;4.30;;
45887;SDS011;31595;51.418;7.572;2023-03-04T03:56:32;14.10;;;3.72;;
45887;SDS011;31595;51.418;7.572;2023-03-04T03:58:59;12.63;;;4.15;;
45887;SDS011;31595;51.418;7.572;2023-03-04T04:01:27;14.07;;;3.20;;
45887;SDS011;31595;51.418;7.572;2023-03-04T04:03:54;19.17;;;4.50;;
45887;SDS011;31595;51.418;7.572;2023-03-04T04:06:22;13.88;;;4.53;;
45887;SDS011;31595;51.418;7.572;2023-03-04T04:08:51;13.25;;;3.88;;
45887;SDS011;31595;51.418;7.572;2023-03-04T04:11:18;12.18;;;4.05;;
45887;SDS011;31595;51.418;7.572;2023-03-04T04:13:45;11.85;;;3.40;;
45887;SDS011;31595;51.418;7.572;2023-03-04T04:16:13;11.10;;;4.10;;
45887;SDS011;31595;51.418;7.572;2023-03-04T04:18:41;15.18;;;4.60;;
45887;SDS011;31595;51.418;7.572;2023-03-04T04:21:08;11.38;;;3.88;;
45887;SDS011;31595;51.418;7.572;2023-03-04T04:23:36;20.95;;;6.40;;
45887;SDS011;31595;51.418;7.572;2023-03-04T04:26:09;11.60;;;5.18;;
45887;SDS011;31595;51.418;7.572;2023-03-04T04:28:39;12.18;;;4.32;;
45887;SDS011;31595;51.418;7.572;2023-03-04T04:31:08;16.00;;;4.80;;
45887;SDS011;31595;51.418;7.572;2023-03-04T04:33:36;13.50;;;4.30;;
45887;SDS011;31595;51.418;7.572;2023-03-04T04:36:04;11.77;;;3.80;;
45887;SDS011;31595;51.418;7.572;2023-03-04T04:41:20;14.60;;;4.05;;
45887;SDS011;31595;51.418;7.572;2023-03-04T04:43:49;12.43;;;4.70;;
45887;SDS011;31595;51.418;7.572;2023-03-04T04:46:17;15.95;;;4.22;;
45887;SDS011;31595;51.418;7.572;2023-03-04T04:48:45;14.48;;;4.00;;
45887;SDS011;31595;51.418;7.572;2023-03-04T04:51:12;9.77;;;3.53;;
45887;SDS011;31595;51.418;7.572;2023-03-04T04:53:40;14.00;;;3.67;;
45887;SDS011;31595;51.418;7.572;2023-03-04T04:56:09;15.65;;;5.45;;
45887;SDS011;31595;51.418;7.572;2023-03-04T04:58:42;13.10;;;4.28;;
45887;SDS011;31595;51.418;7.572;2023-03-04T05:01:10;13.32;;;3.58;;
45887;SDS011;31595;51.418;7.572;2023-03-04T05:03:40;13.70;;;4.13;;
45887;SDS011;31595;51.418;7.572;2023-03-04T05:06:08;12.50;;;3.30;;
45887;SDS011;31595;51.418;7.572;2023-03-04T05:08:37;13.05;;;3.65;;
45887;SDS011;31595;51.418;7.572;2023-03-04T05:11:05;8.45;;;2.88;;
45887;SDS011;31595;51.418;7.572;2023-03-04T05:13:33;13.05;;;3.75;;
45887;SDS011;31595;51.418;7.572;2023-03-04T05:16:02;10.75;;;3.10;;
45887;SDS011;31595;51.418;7.572;2023-03-04T05:18:33;11.18;;;3.70;;
45887;SDS011;31595;51.418;7.572;2023-03-04T05:21:01;9.68;;;3.40;;
45887;SDS011;31595;51.418;7.572;2023-03-04T05:23:30;10.88;;;4.63;;
45887;SDS011;31595;51.418;7.572;2023-03-04T05:25:59;12.60;;;4.32;;
45887;SDS011;31595;51.418;7.572;2023-03-04T05:28:36;13.65;;;3.55;;
45887;SDS011;31595;51.418;7.572;2023-03-04T05:31:05;10.65;;;3.33;;
45887;SDS011;31595;51.418;7.572;2023-03-04T05:33:32;8.23;;;2.60;;
45887;SDS011;31595;51.418;7.572;2023-03-04T05:36:01;10.77;;;3.60;;
45887;SDS011;31595;51.418;7.572;2023-03-04T05:38:29;8.70;;;2.72;;
45887;SDS011;31595;51.418;7.572;2023-03-04T05:40:57;9.95;;;2.78;;
45887;SDS011;31595;51.418;7.572;2023-03-04T05:46:13;12.98;;;3.13;;
45887;SDS011;31595;51.418;7.572;2023-03-04T05:48:43;8.63;;;2.75;;
45887;SDS011;31595;51.418;7.572;2023-03-04T05:51:10;9.63;;;2.53;;
45887;SDS011;31595;51.418;7.572;2023-03-04T05:53:39;9.25;;;2.95;;
45887;SDS011;31595;51.418;7.572;2023-03-04T05:56:11;7.15;;;3.03;;
45887;SDS011;31595;51.418;7.572;2023-03-04T05:58:43;11.68;;;3.15;;
45887;SDS011;31595;51.418;7.572;2023-03-04T06:01:13;8.40;;;2.70;;
45887;SDS011;31595;51.418;7.572;2023-03-04T06:03:41;10.55;;;3.08;;
45887;SDS011;31595;51.418;7.572;2023-03-04T06:06:14;14.80;;;3.25;;
45887;SDS011;31595;51.418;7.572;2023-03-04T06:08:41;13.23;;;2.97;;
45887;SDS011;31595;51.418;7.572;2023-03-04T06:11:08;7.72;;;2.70;;
45887;SDS011;31595;51.418;7.572;2023-03-04T06:13:39;9.73;;;3.05;;
45887;SDS011;31595;51.418;7.572;2023-03-04T06:16:06;9.57;;;2.55;;
45887;SDS011;31595;51.418;7.572;2023-03-04T06:18:36;9.52;;;2.63;;
45887;SDS011;31595;51.418;7.572;2023-03-04T06:21:04;11.88;;;2.88;;
45887;SDS011;31595;51.418;7.572;2023-03-04T06:23:32;10.15;;;2.70;;
45887;SDS011;31595;51.418;7.572;2023-03-04T06:25:59;8.77;;;2.70;;
45887;SDS011;31595;51.418;7.572;2023-03-04T06:28:27;12.02;;;2.72;;
45887;SDS011;31595;51.418;7.572;2023-03-04T06:30:55;8.20;;;2.47;;
45887;SDS011;31595;51.418;7.572;2023-03-04T06:33:23;10.93;;;3.30;;
45887;SDS011;31595;51.418;7.572;2023-03-04T06:35:54;13.57;;;3.38;;
45887;SDS011;31595;51.418;7.572;2023-03-04T06:38:25;10.20;;;2.55;;
45887;SDS011;31595;51.418;7.572;2023-03-04T06:40:52;10.63;;;2.97;;
45887;SDS011;31595;51.418;7.572;2023-03-04T06:43:23;11.70;;;2.90;;
45887;SDS011;31595;51.418;7.572;2023-03-04T06:45:51;11.23;;;3.10;;
45887;SDS011;31595;51.418;7.572;2023-03-04T06:48:19;8.57;;;2.55;;
45887;SDS011;31595;51.418;7.572;2023-03-04T06:50:46;9.60;;;2.65;;
45887;SDS011;31595;51.418;7.572;2023-03-04T06:53:24;9.50;;;3.80;;
45887;SDS011;31595;51.418;7.572;2023-03-04T06:55:55;8.68;;;2.53;;
45887;SDS011;31595;51.418;7.572;2023-03-04T06:58:25;12.50;;;3.20;;
45887;SDS011;31595;51.418;7.572;2023-03-04T07:00:53;11.80;;;2.80;;
45887;SDS011;31595;51.418;7.572;2023-03-04T07:03:21;10.52;;;2.90;;
45887;SDS011;31595;51.418;7.572;2023-03-04T07:05:49;13.45;;;2.83;;
45887;SDS011;31595;51.418;7.572;2023-03-04T07:08:18;12.18;;;3.17;;
45887;SDS011;31595;51.418;7.572;2023-03-04T07:10:48;8.10;;;2.83;;
45887;SDS011;31595;51.418;7.572;2023-03-04T07:13:16;10.95;;;2.67;;
45887;SDS011;31595;51.418;7.572;2023-03-04T07:15:43;6.10;;;2.63;;
45887;SDS011;31595;51.418;7.572;2023-03-04T07:18:10;9.18;;;2.65;;
45887;SDS011;31595;51.418;7.572;2023-03-04T07:20:38;9.77;;;3.35;;
45887;SDS011;31595;51.418;7.572;2023-03-04T07:23:06;10.27;;;2.97;;
45887;SDS011;31595;51.418;7.572;2023-03-04T07:25:34;8.00;;;2.33;;
45887;SDS011;31595;51.418;7.572;2023-03-04T07:28:02;10.10;;;3.25;;
45887;SDS011;31595;51.418;7.572;2023-03-04T07:30:30;10.32;;;3.03;;
45887;SDS011;31595;51.418;7.572;2023-03-04T07:32:57;10.93;;;2.72;;
45887;SDS011;31595;51.418;7.572;2023-03-04T07:35:28;6.88;;;2.40;;
45887;SDS011;31595;51.418;7.572;2023-03-04T07:37:55;9.13;;;2.50;;
45887;SDS011;31595;51.418;7.572;2023-03-04T07:40:23;10.55;;;3.45;;
45887;SDS011;31595;51.418;7.572;2023-03-04T07:42:52;10.90;;;3.22;;
45887;SDS011;31595;51.418;7.572;2023-03-04T07:45:25;11.15;;;3.10;;
45887;SDS011;31595;51.418;7.572;2023-03-04T07:47:58;9.93;;;2.45;;
45887;SDS011;31595;51.418;7.572;2023-03-04T07:50:25;8.20;;;3.20;;
45887;SDS011;31595;51.418;7.572;2023-03-04T07:53:00;10.90;;;3.05;;
45887;SDS011;31595;51.418;7.572;2023-03-04T07:55:33;8.35;;;2.72;;
45887;SDS011;31595;51.418;7.572;2023-03-04T07:58:15;12.43;;;2.90;;
45887;SDS011;31595;51.418;7.572;2023-03-04T08:00:44;7.13;;;2.47;;
45887;SDS011;31595;51.418;7.572;2023-03-04T08:03:11;9.85;;;2.70;;
45887;SDS011;31595;51.418;7.572;2023-03-04T08:05:39;9.05;;;2.67;;
45887;SDS011;31595;51.418;7.572;2023-03-04T08:08:07;9.68;;;2.85;;
45887;SDS011;31595;51.418;7.572;2023-03-04T08:10:35;8.30;;;3.53;;
45887;SDS011;31595;51.418;7.572;2023-03-04T08:13:04;6.88;;;2.40;;
45887;SDS011;31595;51.418;7.572;2023-03-04T08:15:39;7.30;;;3.25;;
45887;SDS011;31595;51.418;7.572;2023-03-04T08:18:07;6.45;;;2.58;;
45887;SDS011;31595;51.418;7.572;2023-03-04T08:20:40;9.00;;;3.35;;
45887;SDS011;31595;51.418;7.572;2023-03-04T08:23:13;9.98;;;2.65;;
45887;SDS011;31595;51.418;7.572;2023-03-04T08:25:41;12.57;;;2.72;;
45887;SDS011;31595;51.418;7.572;2023-03-04T08:28:15;13.88;;;5.97;;
45887;SDS011;31595;51.418;7.572;2023-03-04T08:30:54;20.67;;;12.15;;
45887;SDS011;31595;51.418;7.572;2023-03-04T08:33:27;8.13;;;3.15;;
45887;SDS011;31595;51.418;7.572;2023-03-04T08:35:55;7.75;;;2.90;;
45887;SDS011;31595;51.418;7.572;2023-03-04T08:38:22;6.78;;;2.28;;
45887;SDS011;31595;51.418;7.572;2023-03-04T08:40:55;9.23;;;2.30;;
45887;SDS011;31595;51.418;7.572;2023-03-04T08:43:23;7.00;;;2.03;;
45887;SDS011;31595;51.418;7.572;2023-03-04T08:45:53;8.13;;;2.30;;
45887;SDS011;31595;51.418;7.572;2023-03-04T08:48:24;8.48;;;2.35;;
45887;SDS011;31595;51.418;7.572;2023-03-04T08:50:54;6.10;;;2.40;;
45887;SDS011;31595;51.418;7.572;2023-03-04T08:53:23;7.38;;;2.05;;
45887;SDS011;31595;51.418;7.572;2023-03-04T08:55:51;6.53;;;2.45;;
45887;SDS011;31595;51.418;7.572;2023-03-04T08:58:19;5.00;;;2.20;;
45887;SDS011;31595;51.418;7.572;2023-03-04T09:00:49;6.15;;;2.13;;
45887;SDS011;31595;51.418;7.572;2023-03-04T09:03:18;7.35;;;2.88;;
45887;SDS011;31595;51.418;7.572;2023-03-04T09:05:49;6.80;;;2.30;;
45887;SDS011;31595;51.418;7.572;2023-03-04T09:08:24;4.97;;;2.17;;
45887;SDS011;31595;51.418;7.572;2023-03-04T09:10:53;5.15;;;2.03;;
45887;SDS011;31595;51.418;7.572;2023-03-04T09:13:21;5.68;;;1.90;;
45887;SDS011;31595;51.418;7.572;2023-03-04T09:15:50;5.53;;;2.13;;
45887;SDS011;31595;51.418;7.572;2023-03-04T09:21:04;4.65;;;1.60;;
45887;SDS011;31595;51.418;7.572;2023-03-04T09:23:33;5.45;;;1.80;;
45887;SDS011;31595;51.418;7.572;2023-03-04T09:26:12;6.10;;;1.73;;
45887;SDS011;31595;51.418;7.572;2023-03-04T09:28:53;8.07;;;1.60;;
45887;SDS011;31595;51.418;7.572;2023-03-04T09:31:22;6.20;;;2.00;;
45887;SDS011;31595;51.418;7.572;2023-03-04T09:33:51;8.43;;;2.00;;
45887;SDS011;31595;51.418;7.572;2023-03-04T09:38:47;7.18;;;2.10;;
45887;SDS011;31595;51.418;7.572;2023-03-04T09:41:15;6.97;;;2.17;;
45887;SDS011;31595;51.418;7.572;2023-03-04T09:43:44;5.72;;;2.70;;
45887;SDS011;31595;51.418;7.572;2023-03-04T09:46:13;5.93;;;2.20;;
45887;SDS011;31595;51.418;7.572;2023-03-04T09:48:46;5.57;;;2.50;;
45887;SDS011;31595;51.418;7.572;2023-03-04T09:51:19;8.85;;;2.88;;
45887;SDS011;31595;51.418;7.572;2023-03-04T09:53:51;6.25;;;2.58;;
45887;SDS011;31595;51.418;7.572;2023-03-04T09:56:28;6.03;;;3.38;;
45887;SDS011;31595;51.418;7.572;2023-03-04T09:59:04;6.78;;;2.60;;
45887;SDS011;31595;51.418;7.572;2023-03-04T10:01:41;7.43;;;2.70;;
45887;SDS011;31595;51.418;7.572;2023-03-04T10:04:15;4.25;;;2.25;;
45887;SDS011;31595;51.418;7.572;2023-03-04T10:06:49;6.47;;;2.22;;
45887;SDS011;31595;51.418;7.572;2023-03-04T10:09:19;5.97;;;2.47;;
45887;SDS011;31595;51.418;7.572;2023-03-04T10:11:52;8.27;;;3.10;;
45887;SDS011;31595;51.418;7.572;2023-03-04T10:14:29;7.95;;;3.08;;
45887;SDS011;31595;51.418;7.572;2023-03-04T10:17:02;8.73;;;3.95;;
45887;SDS011;31595;51.418;7.572;2023-03-04T10:19:37;6.93;;;3.60;;
45887;SDS011;31595;51.418;7.572;2023-03-04T10:22:21;6.53;;;3.83;;
45887;SDS011;31595;51.418;7.572;2023-03-04T10:24:52;7.10;;;3.30;;
45887;SDS011;31595;51.418;7.572;2023-03-04T10:29:49;8.18;;;3.42;;
45887;SDS011;31595;51.418;7.572;2023-03-04T10:32:17;6.40;;;3.97;;
45887;SDS011;31595;51.418;7.572;2023-03-04T10:34:46;7.68;;;3.50;;
45887;SDS011;31595;51.418;7.572;2023-03-04T10:37:14;6.05;;;3.65;;
45887;SDS011;31595;51.418;7.572;2023-03-04T10:39:43;6.20;;;3.47;;
45887;SDS011;31595;51.418;7.572;2023-03-04T10:42:25;7.13;;;4.30;;
45887;SDS011;31595;51.418;7.572;2023-03-04T10:45:02;6.40;;;3.90;;
45887;SDS011;31595;51.418;7.572;2023-03-04T10:47:30;6.30;;;4.05;;
45887;SDS011;31595;51.418;7.572;2023-03-04T10:50:00;6.78;;;3.80;;
45887;SDS011;31595;51.418;7.572;2023-03-04T10:52:29;6.28;;;4.53;;
45887;SDS011;31595;51.418;7.572;2023-03-04T10:54:59;7.60;;;4.10;;
45887;SDS011;31595;51.418;7.572;2023-03-04T10:57:32;7.80;;;4.10;;
45887;SDS011;31595;51.418;7.572;2023-03-04T11:00:07;5.72;;;3.50;;
45887;SDS011;31595;51.418;7.572;2023-03-04T11:02:53;6.80;;;3.20;;
45887;SDS011;31595;51.418;7.572;2023-03-04T11:05:47;6.53;;;3.42;;
45887;SDS011;31595;51.418;7.572;2023-03-04T11:08:16;4.72;;;3.13;;
45887;SDS011;31595;51.418;7.572;2023-03-04T11:10:45;6.95;;;5.07;;
45887;SDS011;31595;51.418;7.572;2023-03-04T11:13:15;6.47;;;4.45;;
45887;SDS011;31595;51.418;7.572;2023-03-04T11:15:47;6.10;;;4.50;;
45887;SDS011;31595;51.418;7.572;2023-03-04T11:18:18;7.97;;;4.60;;
45887;SDS011;31595;51.418;7.572;2023-03-04T11:20:51;9.52;;;5.55;;
45887;SDS011;31595;51.418;7.572;2023-03-04T11:23:26;7.55;;;4.63;;
45887;SDS011;31595;51.418;7.572;2023-03-04T11:26:02;9.82;;;4.45;;
45887;SDS011;31595;51.418;7.572;2023-03-04T11:28:36;8.48;;;4.90;;
45887;SDS011;31595;51.418;7.572;2023-03-04T11:31:12;7.68;;;5.00;;
45887;SDS011;31595;51.418;7.572;2023-03-04T11:33:42;9.95;;;5.25;;
45887;SDS011;31595;51.418;7.572;2023-03-04T11:36:20;9.45;;;5.32;;
45887;SDS011;31595;51.418;7.572;2023-03-04T11:38:54;8.25;;;5.20;;
45887;SDS011;31595;51.418;7.572;2023-03-04T11:41:25;6.05;;;4.45;;
45887;SDS011;31595;51.418;7.572;2023-03-04T11:43:57;6.00;;;4.72;;
45887;SDS011;31595;51.418;7.572;2023-03-04T11:52:43;8.32;;;5.80;;
45887;SDS011;31595;51.418;7.572;2023-03-04T11:55:28;6.18;;;5.00;;
45887;SDS011;31595;51.418;7.572;2023-03-04T11:58:07;6.57;;;5.03;;
45887;SDS011;31595;51.418;7.572;2023-03-04T12:01:04;7.97;;;5.70;;
45887;SDS011;31595;51.418;7.572;2023-03-04T12:03:49;8.00;;;5.10;;
45887;SDS011;31595;51.418;7.572;2023-03-04T12:06:40;7.38;;;5.88;;
45887;SDS011;31595;51.418;7.572;2023-03-04T12:09:19;8.77;;;6.57;;
45887;SDS011;31595;51.418;7.572;2023-03-04T12:12:11;8.13;;;6.47;;
45887;SDS011;31595;51.418;7.572;2023-03-04T12:14:55;10.13;;;6.63;;
45887;SDS011;31595;51.418;7.572;2023-03-04T12:17:38;10.57;;;5.70;;
45887;SDS011;31595;51.418;7.572;2023-03-04T12:23:07;9.63;;;7.13;;
45887;SDS011;31595;51.418;7.572;2023-03-04T12:25:47;9.30;;;5.35;;
45887;SDS011;31595;51.418;7.572;2023-03-04T12:28:23;5.72;;;4.45;;
45887;SDS011;31595;51.418;7.572;2023-03-04T12:31:03;4.97;;;3.70;;
45887;SDS011;31595;51.418;7.572;2023-03-04T12:33:43;6.07;;;4.28;;
45887;SDS011;31595;51.418;7.572;2023-03-04T12:36:23;7.85;;;5.60;;
45887;SDS011;31595;51.418;7.572;2023-03-04T12:39:10;7.95;;;5.35;;
45887;SDS011;31595;51.418;7.572;2023-03-04T12:41:50;9.02;;;5.15;;
45887;SDS011;31595;51.418;7.572;2023-03-04T12:44:23;8.73;;;6.78;;
45887;SDS011;31595;51.418;7.572;2023-03-04T12:47:00;6.32;;;5.28;;
45887;SDS011;31595;51.418;7.572;2023-03-04T12:49:39;7.63;;;5.25;;
45887;SDS011;31595;51.418;7.572;2023-03-04T12:52:15;5.75;;;5.07;;
45887;SDS011;31595;51.418;7.572;2023-03-04T12:54:52;5.78;;;3.42;;
45887;SDS011;31595;51.418;7.572;2023-03-04T12:57:24;6.53;;;4.57;;
45887;SDS011;31595;51.418;7.572;2023-03-04T12:59:56;7.68;;;4.85;;
45887;SDS011;31595;51.418;7.572;2023-03-04T13:02:38;6.35;;;4.35;;
45887;SDS011;31595;51.418;7.572;2023-03-04T13:08:12;6.35;;;4.72;;
45887;SDS011;31595;51.418;7.572;2023-03-04T13:10:49;5.22;;;3.78;;
45887;SDS011;31595;51.418;7.572;2023-03-04T13:13:33;4.38;;;3.30;;
45887;SDS011;31595;51.418;7.572;2023-03-04T13:16:03;4.18;;;3.10;;
45887;SDS011;31595;51.418;7.572;2023-03-04T13:18:33;5.30;;;3.72;;
45887;SDS011;31595;51.418;7.572;2023-03-04T13:21:04;5.22;;;3.15;;
45887;SDS011;31595;51.418;7.572;2023-03-04T13:23:47;6.05;;;3.13;;
45887;SDS011;31595;51.418;7.572;2023-03-04T13:29:19;4.53;;;3.30;;
45887;SDS011;31595;51.418;7.572;2023-03-04T13:31:59;5.88;;;4.30;;
45887;SDS011;31595;51.418;7.572;2023-03-04T13:42:45;6.13;;;4.60;;
45887;SDS011;31595;51.418;7.572;2023-03-04T13:45:29;5.78;;;5.13;;
45887;SDS011;31595;51.418;7.572;2023-03-04T13:47:58;6.53;;;5.32;;
45887;SDS011;31595;51.418;7.572;2023-03-04T13:50:31;7.20;;;5.75;;
45887;SDS011;31595;51.418;7.572;2023-03-04T13:53:21;6.90;;;4.65;;
45887;SDS011;31595;51.418;7.572;2023-03-04T14:01:35;5.78;;;4.60;;
45887;SDS011;31595;51.418;7.572;2023-03-04T14:04:15;7.07;;;5.35;;
45887;SDS011;31595;51.418;7.572;2023-03-04T14:06:45;5.95;;;4.00;;
45887;SDS011;31595;51.418;7.572;2023-03-04T14:09:14;5.57;;;3.97;;
45887;SDS011;31595;51.418;7.572;2023-03-04T14:11:45;4.75;;;3.92;;
45887;SDS011;31595;51.418;7.572;2023-03-04T14:14:14;5.72;;;3.25;;
45887;SDS011;31595;51.418;7.572;2023-03-04T14:16:45;5.78;;;3.33;;
45887;SDS011;31595;51.418;7.572;2023-03-04T14:19:16;5.30;;;3.13;;
45887;SDS011;31595;51.418;7.572;2023-03-04T14:21:50;4.57;;;2.83;;
45887;SDS011;31595;51.418;7.572;2023-03-04T14:24:18;5.47;;;2.85;;
45887;SDS011;31595;51.418;7.572;2023-03-04T14:26:46;4.65;;;2.58;;
45887;SDS011;31595;51.418;7.572;2023-03-04T14:29:18;6.20;;;2.80;;
45887;SDS011;31595;51.418;7.572;2023-03-04T14:31:47;3.28;;;2.53;;
45887;SDS011;31595;51.418;7.572;2023-03-04T14:34:16;4.07;;;2.42;;
45887;SDS011;31595;51.418;7.572;2023-03-04T14:36:51;4.93;;;2.70;;
45887;SDS011;31595;51.418;7.572;2023-03-04T14:39:18;4.47;;;2.45;;
45887;SDS011;31595;51.418;7.572;2023-03-04T14:41:49;6.72;;;2.95;;
45887;SDS011;31595;51.418;7.572;2023-03-04T14:44:24;5.45;;;3.40;;
45887;SDS011;31595;51.418;7.572;2023-03-04T14:47:05;4.32;;;2.88;;
45887;SDS011;31595;51.418;7.572;2023-03-04T14:49:39;5.90;;;2.80;;
45887;SDS011;31595;51.418;7.572;2023-03-04T14:55:02;4.90;;;2.80;;
45887;SDS011;31595;51.418;7.572;2023-03-04T14:57:44;6.78;;;2.60;;
45887;SDS011;31595;51.418;7.572;2023-03-04T15:00:24;4.40;;;2.40;;
45887;SDS011;31595;51.418;7.572;2023-03-04T15:02:53;4.40;;;2.28;;
45887;SDS011;31595;51.418;7.572;2023-03-04T15:05:23;5.55;;;2.60;;
45887;SDS011;31595;51.418;7.572;2023-03-04T15:07:54;5.47;;;2.80;;
45887;SDS011;31595;51.418;7.572;2023-03-04T15:10:23;3.65;;;2.33;;
45887;SDS011;31595;51.418;7.572;2023-03-04T15:12:53;4.80;;;2.50;;
45887;SDS011;31595;51.418;7.572;2023-03-04T15:15:34;6.18;;;2.78;;
45887;SDS011;31595;51.418;7.572;2023-03-04T15:18:15;6.38;;;2.97;;
45887;SDS011;31595;51.418;7.572;2023-03-04T15:20:54;4.60;;;2.63;;
45887;SDS011;31595;51.418;7.572;2023-03-04T15:23:25;3.95;;;2.33;;
45887;SDS011;31595;51.418;7.572;2023-03-04T15:28:21;6.25;;;2.70;;
45887;SDS011;31595;51.418;7.572;2023-03-04T15:30:50;4.55;;;2.45;;
45887;SDS011;31595;51.418;7.572;2023-03-04T15:33:18;6.15;;;2.92;;
45887;SDS011;31595;51.418;7.572;2023-03-04T15:35:48;6.93;;;3.40;;
45887;SDS011;31595;51.418;7.572;2023-03-04T15:38:19;6.55;;;3.13;;
45887;SDS011;31595;51.418;7.572;2023-03-04T15:40:48;7.15;;;2.80;;
45887;SDS011;31595;51.418;7.572;2023-03-04T15:43:17;5.25;;;2.33;;
45887;SDS011;31595;51.418;7.572;2023-03-04T15:48:16;6.10;;;2.15;;
45887;SDS011;31595;51.418;7.572;2023-03-04T15:50:45;7.18;;;3.00;;
45887;SDS011;31595;51.418;7.572;2023-03-04T15:53:18;6.28;;;2.20;;